Latest METARs, TAFs and NOTAMs for MROC


---------------------------------------------------------------------------
	(OBSERVATIONS)
MROC 180400Z 12008KT 090V150 9999 FEW040 SCT140 23/18 A3004 
    NOSIG
MROC 180300Z 10010KT 9999 FEW030 23/18 A3004  NOSIG
MROC 180200Z 10007KT 080V140 9999 FEW030 SCT100 23/18 A3004 
    NOSIG
---------------------------------------------------------------------------
	(TERMINAL AREA FORECAST)
MROC 172300Z 1800/1824 08013KT 9999 SCT045
    TX28/1818Z TN20/1810Z
    TEMPO 1807/1811 DZ
    TEMPO 1821/1824 14006KT RA=
---------------------------------------------------------------------------
	(NOTAMS)


MROC A0307/18 REF AIRAC AMDT NR 22 EFFECTIVE DATE 01 FEB 18,MROC
    AD 10.5 RNP W2 RWY 25 (AR) AVAILABLE FOR ACFT CAT D. 13 FEB
    18:19 2018 UNTIL PERM. CREATED: 13 FEB 18:23 2018

MROC A0314/18 REF AIRAC AMDT NR 22 EFFECTIVE DATE 01 FEB 18,
    MROC AD 7.5 SID RNAV NANJO AVAILABLE FOR ACFT CAT D. 13 FEB
    21:15 2018 UNTIL PERM. CREATED: 13 FEB 21:25 2018

MROC A0317/18 REF AIRAC AMDT NR 22 EFFECTIVE DATE 01 FEB 18,
    MROC AD 10.6 RNP E2 RWY 25 (AR) AVAILABLE FOR ACFT CAT D.
    13 FEB 21:58 2018 UNTIL PERM. CREATED: 13 FEB 22:03 2018

MROC A0318/18 REF AIRAC AMDT NR 22 EFFECTIVE DATE 01 FEB 18,
    MROC AD 9.6 STAR RNAV CUARE AVAILABLE FOR ACFT CAT D. 13
    FEB 21:59 2018 UNTIL PERM. CREATED: 13 FEB 22:04 2018

MROC A0474/18 REF COSTA RICA AIP PAGS ENR 3.1-5, ENR 3.2-5, ENR
    3.3-1, ENR 4.4-1, MROC AD 7.2, MROC AD 7.6, MROC AD 9.2,
    MROC AD 9.6, ISEBA COORDINATES READ 093229N0825212W INSTEAD
    OF 093006N0824950W OR 084805.8N0841143.2W. 06 MAR 22:09 2018
    UNTIL PERM. CREATED: 06 MAR 22:09 2018

MROC A0741/18 INSTRUMENT APCH PROC RNAV GNSS RWY 07 CNL REF AD
    10.4/SUP AIP A03/16. 18 APR 19:32 2018 UNTIL PERM. CREATED:
    18 APR 19:34 2018

MROC A1179/18 TWY A 50M W OF TWY D TILL 100M E OF TWY E CTN ADVISED
    DUE TO WIP. 1200-2359, 06 JUL 12:00 2018 UNTIL 21 JUL 23:59
    2018. CREATED: 05 JUL 23:15 2018

MROC A1193/18 AD OPR BUT CTN ADVISED DUE TO WIP AT S SIDE. 10
    JUL 02:33 2018 UNTIL 10 SEP 23:59 2018. CREATED: 10 JUL 02:35
    2018

MROC A1227/18 RWY 07/25 CLSD. 01, 08, 15 0645-0845 02, 03, 07,
    09, 10, 14 0430-0540 0645-0845 06, 13 0905-1005, 01 AUG 06:45
    2018 UNTIL 15 AUG 08:45 2018. CREATED: 13 JUL 22:54 2018

MROC A1248/18 RWY 07/25 CLSD. 17, 20, 24, 27, 31 0430-0540 0645-0845
    19, 26 0430-0540 23, 30 0905-1005, 17 JUL 04:30 2018 UNTIL
    31 JUL 08:45 2018. CREATED: 17 JUL 04:04 2018

MROC A1572/16 VMC PROCEDURE AIRSPACE C REF COSTA RICA AIP PAGE
    MROC AD 2.23 CNL. 25 AUG 01:54 2016 UNTIL PERM. CREATED:
    25 AUG 01:55 2016

MROC C0293/17 CORREDOR VISUAL LA PALMA SE CORRIGEN LAS COORDENADAS
    DEL PUNTO PIEDA :095848N 0840224W.REF.SUP C27/16. 18 JUL
    21:58 2017 UNTIL PERM. CREATED: 18 JUL 21:59 2017

MROC V0049/18 [US DOD PROCEDURAL NOTAM] INSTRUMENT APPROACH PROCEDURE
    NOT AUTHORIZED ILS/DME RWY 07 DOD FLIP VOL-1. 23 MAY 20:43
    2018 UNTIL 19 JUL 00:01 2018. CREATED: 23 MAY 20:43 2018

MROC V0050/18 [US DOD PROCEDURAL NOTAM] INSTRUMENT APPROACH PROCEDURE
    NOT AUTHORIZED VOR/DME RWY 07 DOD FLIP VOL-1. 23 MAY 20:45
    2018 UNTIL 19 JUL 00:01 2018. CREATED: 23 MAY 20:45 2018

MROC V0062/18 [US DOD PROCEDURAL NOTAM] INSTRUMENT APPROACH PROCEDURE
    NOT AUTHORIZED ILS/DME RWY 07 DOD FLIP VOL-1. 19 JUL 00:00
    2018 UNTIL 12 SEP 23:59 2018. CREATED: 16 JUL 17:19 2018

MROC V0063/18 [US DOD PROCEDURAL NOTAM] INSTRUMENT APPROACH PROCEDURE
    NOT AUTHORIZED VOR/DME RWY 07 DOD FLIP VOL-1. 19 JUL 00:00
    2018 UNTIL 12 SEP 23:59 2018. CREATED: 16 JUL 17:20 2018

---------------------------------------------------------------------------